Time;durP1;ratioP1;P1;durP2;ratioP2;P2;SDS_P1;SDS_P2;PMS_P1;PMS_P2;Temp;Humidity;BMP_temperature;BMP_pressure;BME280_temperature;BME280_humidity;BME280_pressure;Samples;Min_cycle;Max_cycle;Signal;HPM_P1;HPM_P2
2021/03/29 00:01:13;;;;;;;8.40;2.97;;;10.10;99.90;;;;;;4963069;28;20209;-75
2021/03/29 00:03:39;;;;;;;11.67;2.87;;;10.20;99.90;;;;;;4982210;28;20916;-80
2021/03/29 00:06:06;;;;;;;12.77;2.97;;;10.20;99.90;;;;;;4983288;28;20204;-76
2021/03/29 00:08:33;;;;;;;10.37;2.93;;;10.20;99.90;;;;;;4981573;28;20222;-77
2021/03/29 00:11:02;;;;;;;11.50;3.10;;;10.20;99.90;;;;;;4967661;28;20437;-75
2021/03/29 00:13:30;;;;;;;11.83;3.00;;;10.20;99.90;;;;;;4962713;28;20228;-77
2021/03/29 00:15:58;;;;;;;12.63;4.03;;;10.20;99.90;;;;;;4963747;28;20215;-77
2021/03/29 00:18:25;;;;;;;12.13;3.63;;;10.20;99.90;;;;;;4968466;28;20214;-79
2021/03/29 00:20:54;;;;;;;14.30;3.77;;;10.30;99.90;;;;;;4982281;28;20208;-77
2021/03/29 00:23:21;;;;;;;9.17;2.70;;;10.20;99.90;;;;;;4981908;28;20707;-77
2021/03/29 00:25:47;;;;;;;14.93;3.33;;;10.20;99.90;;;;;;4980264;28;20211;-76
2021/03/29 00:28:15;;;;;;;17.83;3.63;;;10.20;99.90;;;;;;4962410;28;20214;-76
2021/03/29 00:30:44;;;;;;;15.07;3.73;;;10.20;99.90;;;;;;4962812;28;20219;-78
2021/03/29 00:33:12;;;;;;;17.50;4.20;;;10.20;99.90;;;;;;4962875;28;20275;-78
2021/03/29 00:35:42;;;;;;;18.40;3.40;;;10.10;99.90;;;;;;4962777;28;20208;-77
2021/03/29 00:38:11;;;;;;;12.17;4.23;;;10.10;99.90;;;;;;4982043;28;20286;-76
2021/03/29 00:40:38;;;;;;;12.63;3.97;;;10.10;99.90;;;;;;4982095;28;20328;-75
2021/03/29 00:43:11;;;;;;;15.07;4.23;;;10.10;99.90;;;;;;4981770;28;20199;-74
2021/03/29 00:45:39;;;;;;;13.27;4.27;;;10.10;99.90;;;;;;4980157;28;20698;-75
2021/03/29 00:48:06;;;;;;;13.03;3.57;;;10.10;99.90;;;;;;4962857;28;20200;-77
2021/03/29 00:50:37;;;;;;;10.87;3.87;;;10.10;99.90;;;;;;4961502;28;20528;-76
2021/03/29 00:53:04;;;;;;;11.50;4.23;;;10.00;99.90;;;;;;4963034;28;20225;-77
2021/03/29 00:55:30;;;;;;;11.00;3.73;;;10.00;99.90;;;;;;4960732;28;20213;-78
2021/03/29 00:57:59;;;;;;;11.13;3.47;;;10.00;99.90;;;;;;4963335;28;20212;-76
2021/03/29 01:00:31;;;;;;;12.67;3.73;;;10.00;99.90;;;;;;4977348;28;20212;-77
2021/03/29 01:02:59;;;;;;;11.57;4.13;;;10.00;99.90;;;;;;4962827;28;20204;-78
2021/03/29 01:05:25;;;;;;;17.90;4.37;;;10.00;99.90;;;;;;4962950;28;20219;-78
2021/03/29 01:07:53;;;;;;;12.23;4.03;;;9.90;99.90;;;;;;4975151;28;21007;-77
2021/03/29 01:10:20;;;;;;;14.07;3.90;;;9.90;99.90;;;;;;4968515;28;20291;-77
2021/03/29 01:12:48;;;;;;;13.00;4.20;;;9.90;99.90;;;;;;4962350;28;20224;-77
2021/03/29 01:15:17;;;;;;;15.00;3.80;;;9.90;99.90;;;;;;4962290;28;20230;-77
2021/03/29 01:17:45;;;;;;;17.47;3.67;;;9.80;99.90;;;;;;4961795;28;20894;-79
2021/03/29 01:20:29;;;;;;;20.07;4.43;;;9.80;99.90;;;;;;4962681;28;20209;-76
2021/03/29 01:22:57;;;;;;;14.57;4.53;;;9.80;99.90;;;;;;4962245;28;20220;-80
2021/03/29 01:25:28;;;;;;;14.13;4.67;;;9.80;99.90;;;;;;4961361;28;20205;-78
2021/03/29 01:27:59;;;;;;;14.27;4.03;;;9.70;99.90;;;;;;4961515;28;20204;-79
2021/03/29 01:30:27;;;;;;;17.87;4.37;;;9.70;99.90;;;;;;4962479;28;20916;-79
2021/03/29 01:32:54;;;;;;;14.50;3.53;;;9.70;99.90;;;;;;4962918;28;20263;-78
2021/03/29 01:35:27;;;;;;;13.13;3.70;;;9.60;99.90;;;;;;4962235;28;20567;-80
2021/03/29 01:37:54;;;;;;;18.97;4.70;;;9.60;99.90;;;;;;4962319;28;20213;-77
2021/03/29 01:40:22;;;;;;;16.33;4.67;;;9.60;99.90;;;;;;4962269;28;20216;-77
2021/03/29 01:42:49;;;;;;;13.97;4.73;;;9.60;99.90;;;;;;4962552;28;20201;-78
2021/03/29 01:45:19;;;;;;;12.10;4.17;;;9.60;99.90;;;;;;4961810;28;20247;-79
2021/03/29 01:47:45;;;;;;;20.10;4.80;;;9.60;99.90;;;;;;4981788;28;20596;-79
2021/03/29 01:50:18;;;;;;;15.63;4.60;;;9.50;99.90;;;;;;4983848;28;20207;-80
2021/03/29 01:52:45;;;;;;;15.50;4.37;;;9.50;99.90;;;;;;4984508;28;20643;-79
2021/03/29 01:55:12;;;;;;;12.60;4.33;;;9.50;99.90;;;;;;4975560;28;20212;-78
2021/03/29 01:57:38;;;;;;;9.67;3.53;;;9.50;99.90;;;;;;4966402;28;20621;-79
2021/03/29 02:00:09;;;;;;;10.33;3.83;;;9.50;99.90;;;;;;4965193;28;20605;-78
2021/03/29 02:02:37;;;;;;;11.67;4.30;;;9.50;99.90;;;;;;4965737;28;20212;-78
2021/03/29 02:05:08;;;;;;;17.67;3.93;;;9.50;99.90;;;;;;4965572;28;20641;-79
2021/03/29 02:07:35;;;;;;;19.03;4.57;;;9.50;99.90;;;;;;4975185;28;20687;-79
2021/03/29 02:10:01;;;;;;;13.53;4.00;;;9.50;99.90;;;;;;4985258;28;20214;-78
2021/03/29 02:12:29;;;;;;;15.70;4.93;;;9.50;99.90;;;;;;4975695;28;20232;-75
2021/03/29 02:14:56;;;;;;;22.43;4.80;;;9.50;99.90;;;;;;4965435;28;20204;-78
2021/03/29 02:17:22;;;;;;;18.77;4.53;;;9.50;99.90;;;;;;4965263;28;20617;-78
2021/03/29 02:19:50;;;;;;;9.63;3.60;;;9.50;99.90;;;;;;4970882;28;20212;-77
2021/03/29 02:22:17;;;;;;;16.17;4.27;;;9.40;99.90;;;;;;4984763;28;20224;-78
2021/03/29 02:24:45;;;;;;;19.17;4.40;;;9.40;99.90;;;;;;4984561;28;20211;-79
2021/03/29 02:27:12;;;;;;;16.97;5.03;;;9.50;99.90;;;;;;4967389;28;20224;-79
2021/03/29 02:29:39;;;;;;;18.40;5.13;;;9.40;99.90;;;;;;4965323;28;20341;-77
2021/03/29 02:32:06;;;;;;;17.37;5.23;;;9.40;99.90;;;;;;4964950;28;20204;-77
2021/03/29 02:34:33;;;;;;;14.13;4.13;;;9.40;99.90;;;;;;4963917;28;20228;-77
2021/03/29 02:37:02;;;;;;;19.37;5.53;;;9.40;99.90;;;;;;4965293;28;20223;-77
2021/03/29 02:39:28;;;;;;;14.93;4.57;;;9.40;99.90;;;;;;4964374;28;20200;-78
2021/03/29 02:41:54;;;;;;;17.53;4.57;;;9.40;99.90;;;;;;4964665;28;20216;-77
2021/03/29 02:44:21;;;;;;;13.43;4.30;;;9.40;99.90;;;;;;4964703;28;20208;-76
2021/03/29 02:46:50;;;;;;;12.23;3.77;;;9.40;99.90;;;;;;4964936;28;20205;-78
2021/03/29 02:49:18;;;;;;;16.40;4.30;;;9.40;99.90;;;;;;4964092;28;20851;-77
2021/03/29 02:51:45;;;;;;;16.40;4.73;;;9.40;99.90;;;;;;4964144;28;20204;-76
2021/03/29 02:54:14;;;;;;;20.10;6.23;;;9.40;99.90;;;;;;4964166;28;20275;-75
2021/03/29 02:56:42;;;;;;;11.87;3.50;;;9.40;99.90;;;;;;4963924;28;20710;-77
2021/03/29 02:59:13;;;;;;;16.33;5.00;;;9.40;99.90;;;;;;4964665;28;20193;-78
2021/03/29 03:01:40;;;;;;;16.07;3.77;;;9.30;99.90;;;;;;4964605;28;20201;-79
2021/03/29 03:04:09;;;;;;;17.63;4.60;;;9.30;99.90;;;;;;4963928;28;20204;-78
2021/03/29 03:06:36;;;;;;;12.47;3.60;;;9.40;99.90;;;;;;4965915;28;20332;-80
2021/03/29 03:09:05;;;;;;;12.10;4.40;;;9.40;99.90;;;;;;4974992;28;20672;-76
2021/03/29 03:11:33;;;;;;;11.67;4.50;;;9.30;99.90;;;;;;4963702;28;20299;-79
2021/03/29 03:14:02;;;;;;;22.33;6.03;;;9.30;99.90;;;;;;4964352;28;20264;-76
2021/03/29 03:16:30;;;;;;;16.10;4.63;;;9.40;99.90;;;;;;4963272;28;20919;-79
2021/03/29 03:18:56;;;;;;;22.67;5.33;;;9.40;99.90;;;;;;4963823;28;20205;-79
2021/03/29 03:21:22;;;;;;;18.93;4.97;;;9.40;99.90;;;;;;4973431;28;20216;-78
2021/03/29 03:23:54;;;;;;;18.07;4.67;;;9.40;99.90;;;;;;4982554;28;20223;-80
2021/03/29 03:26:21;;;;;;;17.13;4.90;;;9.50;99.90;;;;;;4968764;28;20212;-78
2021/03/29 03:28:49;;;;;;;14.50;4.33;;;9.50;99.90;;;;;;4963631;28;20653;-78
2021/03/29 03:31:15;;;;;;;12.27;3.93;;;9.50;99.90;;;;;;4963306;28;20212;-78
2021/03/29 03:33:41;;;;;;;12.13;4.70;;;9.50;99.90;;;;;;4963201;28;20263;-79
2021/03/29 03:36:08;;;;;;;16.27;3.70;;;9.50;99.90;;;;;;4963479;28;20540;-78
2021/03/29 03:38:38;;;;;;;21.70;5.93;;;9.50;99.90;;;;;;4962767;28;20193;-78
2021/03/29 03:41:07;;;;;;;13.37;4.17;;;9.50;99.90;;;;;;4963893;28;20228;-79
2021/03/29 03:43:36;;;;;;;16.43;3.70;;;9.60;99.90;;;;;;4963102;28;20205;-77
2021/03/29 03:46:06;;;;;;;13.60;3.80;;;9.50;99.90;;;;;;4962726;28;20219;-78
2021/03/29 03:48:33;;;;;;;17.23;4.87;;;9.50;99.90;;;;;;4962888;28;20212;-76
2021/03/29 03:51:00;;;;;;;17.97;4.60;;;9.50;99.90;;;;;;4963314;28;20835;-78
2021/03/29 03:53:28;;;;;;;17.40;4.97;;;9.50;99.90;;;;;;4962238;28;20228;-77
2021/03/29 03:55:57;;;;;;;19.07;4.57;;;9.50;99.90;;;;;;4981919;28;20882;-78
2021/03/29 03:58:23;;;;;;;15.90;4.17;;;9.50;99.90;;;;;;4982102;28;20259;-76
2021/03/29 04:00:50;;;;;;;14.37;3.80;;;9.50;99.90;;;;;;4976737;28;20215;-77
2021/03/29 04:03:17;;;;;;;20.47;5.83;;;9.50;99.90;;;;;;4963356;28;20205;-79
2021/03/29 04:05:44;;;;;;;19.53;4.30;;;9.50;99.90;;;;;;4963175;28;20671;-76
2021/03/29 04:08:11;;;;;;;16.23;4.97;;;9.50;99.90;;;;;;4977997;28;20219;-78
2021/03/29 04:10:43;;;;;;;12.77;4.13;;;9.50;99.90;;;;;;4963116;28;20721;-76
2021/03/29 04:13:13;;;;;;;15.03;4.20;;;9.50;99.90;;;;;;4962400;28;20946;-75
2021/03/29 04:15:39;;;;;;;20.63;4.20;;;9.50;99.90;;;;;;4963907;28;21043;-79
2021/03/29 04:18:06;;;;;;;14.90;4.10;;;9.50;99.90;;;;;;4964104;28;20209;-79
2021/03/29 04:20:35;;;;;;;16.50;4.47;;;9.50;99.90;;;;;;4962801;28;20209;-77
2021/03/29 04:23:01;;;;;;;19.60;4.97;;;9.50;99.90;;;;;;4963055;28;20228;-78
2021/03/29 04:25:28;;;;;;;21.00;4.67;;;9.50;99.90;;;;;;4962857;28;20445;-78
2021/03/29 04:27:54;;;;;;;20.83;5.10;;;9.50;99.90;;;;;;4962740;28;20216;-77
2021/03/29 04:30:22;;;;;;;17.00;4.87;;;9.50;99.90;;;;;;4962547;28;20212;-77
2021/03/29 04:32:51;;;;;;;18.73;4.53;;;9.50;99.90;;;;;;4962505;28;20205;-78
2021/03/29 04:35:20;;;;;;;19.80;4.40;;;9.50;99.90;;;;;;4962417;28;20213;-77
2021/03/29 04:37:48;;;;;;;16.67;5.10;;;9.50;99.90;;;;;;4981583;28;20207;-77
2021/03/29 04:40:14;;;;;;;18.27;4.90;;;9.40;99.90;;;;;;4981985;28;20200;-78
2021/03/29 04:42:41;;;;;;;22.00;5.43;;;9.50;99.90;;;;;;4981968;28;20206;-80
2021/03/29 04:45:09;;;;;;;20.00;4.93;;;9.40;99.90;;;;;;4975013;28;20212;-78
2021/03/29 04:47:35;;;;;;;20.40;5.60;;;9.40;99.90;;;;;;4962210;28;20196;-80
2021/03/29 04:50:02;;;;;;;24.17;6.50;;;9.40;99.90;;;;;;4962255;28;20259;-80
2021/03/29 04:52:28;;;;;;;21.43;5.50;;;9.40;99.90;;;;;;4961913;28;20204;-76
2021/03/29 04:54:55;;;;;;;26.87;5.23;;;9.40;99.90;;;;;;4962672;28;20232;-76
2021/03/29 04:57:21;;;;;;;20.10;5.67;;;9.40;99.90;;;;;;4962341;28;20216;-78
2021/03/29 04:59:47;;;;;;;24.40;5.13;;;9.40;99.90;;;;;;4962569;28;20204;-77
2021/03/29 05:02:14;;;;;;;24.63;5.40;;;9.30;99.90;;;;;;4962078;28;20217;-77
2021/03/29 05:04:40;;;;;;;20.40;5.90;;;9.30;99.90;;;;;;4962669;28;20201;-76
2021/03/29 05:07:10;;;;;;;23.67;6.60;;;9.30;99.90;;;;;;4968832;28;20204;-75
2021/03/29 05:09:37;;;;;;;19.23;5.60;;;9.20;99.90;;;;;;4981240;28;20902;-77
2021/03/29 05:12:10;;;;;;;31.47;8.20;;;9.20;99.90;;;;;;4981669;28;20247;-77
2021/03/29 05:14:37;;;;;;;28.53;7.33;;;9.20;99.90;;;;;;4972065;28;20592;-77
2021/03/29 05:17:03;;;;;;;22.13;6.57;;;9.10;99.90;;;;;;4962758;28;20217;-77
2021/03/29 05:19:30;;;;;;;27.00;6.13;;;9.20;99.90;;;;;;4961884;28;20259;-79
2021/03/29 05:21:56;;;;;;;19.20;5.83;;;9.10;99.90;;;;;;4962831;28;20216;-78
2021/03/29 05:24:22;;;;;;;25.33;7.03;;;9.10;99.90;;;;;;4964926;28;20206;-75
2021/03/29 05:26:48;;;;;;;17.10;5.13;;;9.10;99.90;;;;;;4957699;28;20920;-78
2021/03/29 05:29:16;;;;;;;21.47;5.47;;;9.10;99.90;;;;;;4965006;28;20616;-79
2021/03/29 05:31:42;;;;;;;24.57;6.23;;;9.00;99.90;;;;;;4965826;28;20200;-79
2021/03/29 05:34:10;;;;;;;23.60;6.17;;;9.00;99.90;;;;;;4965492;28;20656;-78
2021/03/29 05:36:36;;;;;;;28.43;6.53;;;9.00;99.90;;;;;;4979069;28;20220;-80
2021/03/29 05:39:04;;;;;;;26.40;6.27;;;9.00;99.90;;;;;;4984694;28;20965;-79
2021/03/29 05:41:30;;;;;;;24.13;6.50;;;9.00;99.90;;;;;;4983472;28;20664;-79
2021/03/29 05:43:57;;;;;;;20.70;6.10;;;9.00;99.90;;;;;;4985085;28;20204;-77
2021/03/29 05:46:24;;;;;;;16.43;5.30;;;9.00;99.90;;;;;;4985301;28;20246;-79
2021/03/29 05:48:50;;;;;;;20.27;5.13;;;9.00;99.90;;;;;;4983028;28;20200;-79
2021/03/29 05:51:17;;;;;;;22.13;6.73;;;9.10;99.90;;;;;;4964723;28;20197;-79
2021/03/29 05:53:43;;;;;;;22.20;7.07;;;9.10;99.90;;;;;;4964775;28;20232;-78
2021/03/29 05:56:12;;;;;;;22.27;7.20;;;9.00;99.90;;;;;;4964915;28;20248;-79
2021/03/29 05:58:42;;;;;;;25.37;6.47;;;9.00;99.90;;;;;;4964614;28;20215;-80
2021/03/29 06:01:08;;;;;;;27.07;5.57;;;9.00;99.90;;;;;;4964495;28;20205;-78
2021/03/29 06:03:37;;;;;;;23.03;6.33;;;9.10;99.90;;;;;;4964117;28;20213;-80
2021/03/29 06:06:18;;;;;;;30.47;6.63;;;9.00;99.90;;;;;;4965158;28;20820;-79
2021/03/29 06:08:46;;;;;;;28.93;6.43;;;9.00;99.90;;;;;;4978302;28;20208;-79
2021/03/29 06:11:24;;;;;;;27.23;7.77;;;9.00;99.90;;;;;;4965225;28;20245;-80
2021/03/29 06:14:12;;;;;;;31.27;7.13;;;9.10;99.90;;;;;;4964641;28;20235;-78
2021/03/29 06:16:57;;;;;;;23.87;5.63;;;9.00;99.90;;;;;;4964980;28;20258;-78
2021/03/29 06:19:40;;;;;;;27.37;6.10;;;9.10;99.90;;;;;;4964119;28;20193;-79
2021/03/29 06:22:12;;;;;;;27.27;5.87;;;9.10;99.90;;;;;;4965286;28;20205;-79
2021/03/29 06:24:56;;;;;;;27.03;6.43;;;9.00;99.90;;;;;;4965213;28;20643;-81
2021/03/29 06:27:24;;;;;;;30.50;6.33;;;9.10;99.90;;;;;;4963712;28;20208;-79
2021/03/29 06:29:51;;;;;;;27.63;5.37;;;9.10;99.90;;;;;;4964761;28;20216;-80
2021/03/29 06:32:18;;;;;;;24.57;6.80;;;9.10;99.90;;;;;;4964371;28;20582;-79
2021/03/29 06:34:45;;;;;;;32.87;7.07;;;9.20;99.90;;;;;;4963500;28;20240;-79
2021/03/29 06:37:12;;;;;;;24.97;5.63;;;9.20;99.90;;;;;;4964516;28;20946;-79
2021/03/29 06:39:39;;;;;;;26.23;8.00;;;9.20;99.90;;;;;;4963858;28;20212;-79
2021/03/29 06:42:06;;;;;;;29.07;6.80;;;9.20;99.90;;;;;;4964100;28;20204;-77
2021/03/29 06:44:34;;;;;;;27.87;6.30;;;9.20;99.90;;;;;;4963969;28;20977;-78
2021/03/29 06:47:10;;;;;;;30.60;7.43;;;9.30;99.90;;;;;;4964485;28;20255;-78
2021/03/29 06:49:39;;;;;;;25.20;6.20;;;9.30;99.90;;;;;;4964083;28;20212;-78
2021/03/29 06:52:26;;;;;;;25.80;6.30;;;9.40;99.90;;;;;;4965160;28;20279;-78
2021/03/29 06:54:53;;;;;;;28.20;6.97;;;9.40;99.90;;;;;;4963354;28;20319;-78
2021/03/29 06:57:30;;;;;;;26.70;6.83;;;9.40;99.90;;;;;;4922089;28;20515;-80
2021/03/29 06:59:57;;;;;;;29.63;7.27;;;9.40;99.90;;;;;;4964651;28;20211;-80
2021/03/29 07:02:45;;;;;;;20.60;5.80;;;9.50;99.90;;;;;;4964465;28;20219;-79
2021/03/29 07:05:13;;;;;;;23.93;5.90;;;9.50;99.90;;;;;;4957134;28;20215;-78
2021/03/29 07:07:40;;;;;;;26.30;7.70;;;9.50;99.90;;;;;;4969126;28;20935;-79
2021/03/29 07:10:10;;;;;;;24.33;6.73;;;9.60;99.90;;;;;;4963948;28;20216;-79
2021/03/29 07:12:38;;;;;;;25.03;6.43;;;9.60;99.90;;;;;;4964546;28;20209;-80
2021/03/29 07:26:36;;;;;;;27.20;6.53;;;9.70;99.90;;;;;;4690266;29;20727;-76
2021/03/29 07:29:20;;;;;;;22.37;5.50;;;9.80;99.90;;;;;;4787633;29;20199;-76
2021/03/29 07:31:50;;;;;;;24.23;6.40;;;9.80;99.90;;;;;;4796260;29;20214;-77
2021/03/29 07:34:17;;;;;;;23.90;7.03;;;9.80;99.90;;;;;;4916534;29;20577;-77
2021/03/29 07:36:46;;;;;;;20.53;6.23;;;9.90;99.90;;;;;;4936664;29;20419;-76
2021/03/29 07:39:19;;;;;;;24.93;6.90;;;9.90;99.90;;;;;;4941742;29;20209;-78
2021/03/29 07:41:46;;;;;;;28.87;6.73;;;10.00;99.90;;;;;;4940801;29;20209;-76
2021/03/29 07:44:18;;;;;;;28.90;7.63;;;10.00;99.90;;;;;;4942826;29;20197;-78
2021/03/29 07:46:49;;;;;;;25.83;7.27;;;10.00;99.90;;;;;;4941414;28;20232;-78
2021/03/29 07:49:42;;;;;;;26.53;6.87;;;10.10;99.90;;;;;;4941430;29;20186;-79
2021/03/29 07:52:27;;;;;;;27.27;7.33;;;10.10;99.90;;;;;;4922915;29;20553;-79
2021/03/29 07:54:56;;;;;;;23.97;7.83;;;10.20;99.90;;;;;;4923497;29;20233;-76
2021/03/29 07:58:00;;;;;;;23.83;6.30;;;10.20;99.90;;;;;;4923103;29;20212;-79
2021/03/29 08:00:55;;;;;;;26.00;8.33;;;10.30;99.90;;;;;;4936622;29;20220;-79
2021/03/29 08:03:43;;;;;;;28.93;7.70;;;10.30;99.90;;;;;;4941643;29;20288;-78
2021/03/29 08:06:37;;;;;;;30.63;6.83;;;10.40;99.90;;;;;;4928456;29;20252;-78
2021/03/29 08:09:04;;;;;;;33.10;8.90;;;10.40;99.90;;;;;;4940232;29;20235;-79
2021/03/29 08:12:01;;;;;;;35.43;9.57;;;10.50;99.90;;;;;;4940167;29;20852;-78
2021/03/29 08:14:43;;;;;;;30.80;8.47;;;10.50;99.90;;;;;;4941371;29;20233;-79
2021/03/29 08:17:37;;;;;;;23.00;7.03;;;10.60;99.90;;;;;;4922986;29;20217;-77
2021/03/29 08:20:18;;;;;;;26.13;7.93;;;10.60;99.90;;;;;;4922345;29;20330;-78
2021/03/29 08:22:44;;;;;;;29.93;8.57;;;10.80;99.90;;;;;;4944440;28;20244;-79
2021/03/29 08:25:27;;;;;;;26.17;7.80;;;11.00;99.90;;;;;;4962758;28;20204;-79
2021/03/29 08:27:55;;;;;;;18.80;6.57;;;11.30;99.90;;;;;;4961556;28;20692;-78
2021/03/29 08:30:23;;;;;;;24.30;7.37;;;11.40;99.90;;;;;;4962072;28;20223;-78
2021/03/29 08:32:50;;;;;;;30.80;7.33;;;11.50;99.90;;;;;;4963488;28;20204;-78
2021/03/29 08:35:18;;;;;;;24.23;6.27;;;11.60;99.90;;;;;;4963152;28;20232;-78
2021/03/29 08:37:47;;;;;;;30.23;8.30;;;11.70;99.90;;;;;;4961145;28;20208;-76
2021/03/29 08:40:16;;;;;;;22.30;7.10;;;11.80;99.90;;;;;;4962770;28;20221;-77
2021/03/29 08:42:43;;;;;;;24.57;7.43;;;11.80;99.90;;;;;;4963065;28;20224;-78
2021/03/29 08:45:11;;;;;;;25.93;7.23;;;11.80;99.90;;;;;;4962408;28;20512;-78
2021/03/29 08:47:41;;;;;;;20.87;8.23;;;11.80;99.90;;;;;;4962542;28;20201;-80
2021/03/29 08:50:10;;;;;;;26.17;8.70;;;11.80;99.90;;;;;;4977987;28;20219;-82
2021/03/29 08:52:43;;;;;;;26.43;7.70;;;11.80;99.90;;;;;;4981502;28;20207;-81
2021/03/29 08:55:11;;;;;;;32.43;7.70;;;11.70;99.90;;;;;;4982386;28;20286;-77
2021/03/29 08:57:38;;;;;;;26.87;8.50;;;11.80;99.90;;;;;;4964872;28;20219;-82
2021/03/29 09:00:10;;;;;;;27.67;8.73;;;11.80;99.90;;;;;;4966841;28;20308;-80
2021/03/29 09:02:37;;;;;;;28.57;8.00;;;11.80;99.90;;;;;;4966149;28;20212;-78
2021/03/29 09:05:10;;;;;;;29.33;8.87;;;11.80;99.90;;;;;;4966845;28;20212;-79
2021/03/29 09:07:39;;;;;;;30.87;8.77;;;11.80;99.90;;;;;;4977101;28;20214;-78
2021/03/29 09:10:18;;;;;;;31.33;8.80;;;11.80;99.90;;;;;;4976394;28;20244;-79
2021/03/29 09:12:45;;;;;;;24.00;7.97;;;11.80;99.90;;;;;;4965763;28;20808;-79
2021/03/29 09:15:14;;;;;;;26.97;9.23;;;11.70;99.90;;;;;;4965830;28;20229;-77
2021/03/29 09:17:40;;;;;;;24.77;8.80;;;11.60;99.90;;;;;;4967000;28;20216;-77
2021/03/29 09:20:18;;;;;;;28.30;8.50;;;11.60;99.90;;;;;;4966978;28;20216;-77
2021/03/29 09:22:46;;;;;;;28.57;8.60;;;11.60;99.90;;;;;;4967741;28;20251;-80
2021/03/29 09:25:13;;;;;;;25.87;6.90;;;11.60;99.90;;;;;;4967645;28;20251;-78
2021/03/29 09:27:43;;;;;;;33.83;9.80;;;11.70;99.90;;;;;;4966175;28;20294;-78
2021/03/29 09:30:12;;;;;;;29.80;8.67;;;11.70;99.90;;;;;;4965329;28;20235;-77
2021/03/29 09:32:43;;;;;;;33.73;9.03;;;11.70;99.90;;;;;;4964587;28;20729;-78
2021/03/29 09:35:11;;;;;;;26.13;7.13;;;11.80;99.90;;;;;;4964841;28;20216;-77
2021/03/29 09:37:46;;;;;;;32.67;9.37;;;11.80;99.90;;;;;;4963989;28;20209;-78
2021/03/29 09:40:13;;;;;;;26.23;8.33;;;11.80;99.90;;;;;;4966200;28;20204;-76
2021/03/29 09:42:41;;;;;;;31.30;8.17;;;11.80;99.90;;;;;;4966012;28;20201;-76
2021/03/29 09:45:11;;;;;;;21.23;7.00;;;11.80;99.90;;;;;;4966221;28;20212;-76
2021/03/29 09:47:37;;;;;;;28.37;8.67;;;11.80;99.90;;;;;;4965965;28;20270;-78
2021/03/29 09:50:06;;;;;;;25.87;7.40;;;11.70;99.90;;;;;;4965335;28;20251;-75
2021/03/29 09:52:42;;;;;;;26.27;7.03;;;11.80;99.90;;;;;;4965482;28;20274;-76
2021/03/29 09:55:13;;;;;;;24.33;7.67;;;11.80;99.90;;;;;;4966337;28;20216;-76
2021/03/29 09:57:42;;;;;;;28.93;7.97;;;11.80;99.90;;;;;;4965322;28;20668;-76
2021/03/29 10:00:16;;;;;;;30.33;7.50;;;11.90;99.90;;;;;;4965639;28;20216;-76
2021/03/29 10:02:43;;;;;;;29.17;7.97;;;11.90;99.90;;;;;;4965280;28;20208;-76
2021/03/29 10:05:11;;;;;;;33.73;7.80;;;12.00;99.90;;;;;;4964932;28;20200;-76
2021/03/29 10:07:50;;;;;;;28.80;7.13;;;12.10;99.90;;;;;;4975067;28;20212;-75
2021/03/29 10:10:24;;;;;;;30.67;7.40;;;12.10;99.90;;;;;;4983114;28;20203;-76
2021/03/29 10:12:50;;;;;;;24.40;6.63;;;12.00;99.90;;;;;;4983907;28;20204;-76
2021/03/29 10:15:17;;;;;;;22.93;7.33;;;12.10;99.90;;;;;;4975128;28;20228;-76
2021/03/29 10:17:43;;;;;;;24.47;6.43;;;12.20;99.90;;;;;;4964851;28;20271;-76
2021/03/29 10:20:12;;;;;;;28.67;8.37;;;12.30;99.90;;;;;;4964021;28;20204;-75
2021/03/29 10:22:38;;;;;;;24.97;6.60;;;12.20;99.90;;;;;;4965323;28;20220;-76
2021/03/29 10:25:12;;;;;;;20.77;6.97;;;12.30;99.90;;;;;;4965859;28;20208;-75
2021/03/29 10:27:41;;;;;;;25.23;6.97;;;12.30;99.90;;;;;;4965650;28;20196;-77
2021/03/29 10:30:10;;;;;;;22.80;6.80;;;12.30;99.90;;;;;;4966081;28;20212;-77
2021/03/29 10:32:36;;;;;;;27.63;6.07;;;12.40;99.90;;;;;;4963524;28;20209;-78
2021/03/29 10:35:04;;;;;;;21.73;7.07;;;12.50;99.90;;;;;;4965089;28;20235;-79
2021/03/29 10:37:32;;;;;;;25.53;6.07;;;12.60;99.90;;;;;;4964791;28;20197;-79
2021/03/29 10:40:00;;;;;;;23.77;5.67;;;12.90;99.90;;;;;;4965566;28;20224;-78
2021/03/29 10:42:31;;;;;;;26.57;7.07;;;13.20;99.90;;;;;;4965660;28;20200;-80
2021/03/29 10:44:58;;;;;;;25.43;6.10;;;13.50;99.90;;;;;;4965862;28;20236;-78
2021/03/29 10:47:24;;;;;;;24.83;6.17;;;13.70;99.90;;;;;;4965699;28;20213;-80
2021/03/29 10:49:51;;;;;;;29.70;5.53;;;13.80;99.90;;;;;;4965306;28;20254;-83
2021/03/29 10:52:18;;;;;;;23.47;5.87;;;14.00;99.90;;;;;;4963922;28;20204;-78
2021/03/29 10:54:45;;;;;;;27.20;6.97;;;14.10;99.90;;;;;;4996442;23;20397;-76
2021/03/29 10:57:12;;;;;;;24.47;6.03;;;14.30;99.90;;;;;;5011531;23;20247;-77
2021/03/29 10:59:39;;;;;;;26.13;6.60;;;14.40;99.90;;;;;;5002176;28;20214;-77
2021/03/29 11:02:05;;;;;;;23.07;5.90;;;14.50;99.90;;;;;;5002483;28;20199;-76
2021/03/29 11:04:31;;;;;;;23.57;5.93;;;14.50;99.90;;;;;;4989434;28;20212;-78
2021/03/29 11:06:58;;;;;;;21.10;5.23;;;14.60;99.90;;;;;;4987499;28;20214;-78
2021/03/29 11:09:25;;;;;;;20.57;5.37;;;14.60;99.90;;;;;;5003005;28;20587;-78
2021/03/29 11:11:52;;;;;;;18.07;4.70;;;14.60;99.90;;;;;;5003079;28;20207;-80
2021/03/29 11:14:20;;;;;;;17.13;4.67;;;14.60;99.90;;;;;;4986042;28;20347;-77
2021/03/29 11:16:49;;;;;;;21.57;6.20;;;14.60;99.90;;;;;;4983200;28;20318;-77
2021/03/29 11:19:16;;;;;;;19.07;5.23;;;14.60;99.90;;;;;;4981782;28;20274;-78
2021/03/29 11:21:42;;;;;;;20.20;5.00;;;14.70;99.90;;;;;;4983906;28;20208;-80
2021/03/29 11:24:10;;;;;;;17.97;4.87;;;14.80;99.90;;;;;;4984005;28;20224;-78
2021/03/29 11:26:37;;;;;;;19.60;5.30;;;14.70;99.90;;;;;;4981995;28;20208;-77
2021/03/29 11:29:03;;;;;;;19.23;4.60;;;14.70;99.90;;;;;;4982581;28;20301;-78
2021/03/29 11:31:30;;;;;;;20.43;4.90;;;14.70;99.90;;;;;;4984557;28;20208;-81
2021/03/29 11:33:57;;;;;;;24.77;6.03;;;14.60;99.90;;;;;;4983842;28;20865;-80
2021/03/29 11:36:23;;;;;;;28.13;5.30;;;14.50;99.90;;;;;;4983124;28;20262;-79
2021/03/29 11:38:50;;;;;;;19.77;5.07;;;14.60;99.90;;;;;;4981537;28;20473;-79
2021/03/29 11:41:20;;;;;;;14.40;4.23;;;14.50;99.90;;;;;;4981762;28;20282;-79
2021/03/29 11:43:46;;;;;;;24.63;5.10;;;14.50;99.90;;;;;;4981940;28;20212;-80
2021/03/29 11:46:12;;;;;;;21.27;6.37;;;14.60;99.90;;;;;;4982168;28;20327;-79
2021/03/29 11:48:39;;;;;;;20.77;6.00;;;14.60;99.90;;;;;;4981642;28;20599;-77
2021/03/29 11:51:07;;;;;;;21.77;5.60;;;14.70;99.90;;;;;;4982735;28;20211;-75
2021/03/29 11:53:34;;;;;;;20.60;4.73;;;14.70;99.90;;;;;;4982003;28;20720;-78
2021/03/29 11:56:00;;;;;;;27.13;5.03;;;14.80;99.90;;;;;;4982666;28;20596;-77
2021/03/29 11:58:27;;;;;;;30.40;5.97;;;14.90;99.90;;;;;;4981165;28;20235;-78
2021/03/29 12:00:56;;;;;;;23.13;6.07;;;14.90;99.90;;;;;;4982995;28;20227;-79
2021/03/29 12:03:29;;;;;;;17.70;4.63;;;14.90;99.90;;;;;;4982177;28;20216;-79
2021/03/29 12:05:58;;;;;;;21.67;6.07;;;14.90;99.90;;;;;;4981953;28;20210;-81
2021/03/29 12:08:31;;;;;;;24.03;5.10;;;15.00;99.90;;;;;;4993431;28;20204;-79
2021/03/29 12:13:43;;;;;;;17.83;4.90;;;14.90;99.90;;;;;;4983032;28;20319;-82
2021/03/29 12:16:10;;;;;;;16.10;4.50;;;14.90;99.90;;;;;;4984445;28;20258;-76
2021/03/29 12:18:42;;;;;;;18.40;5.20;;;14.90;99.90;;;;;;4984407;28;20236;-76
2021/03/29 12:21:12;;;;;;;19.73;4.90;;;14.80;99.90;;;;;;4982694;28;20314;-79
2021/03/29 12:23:42;;;;;;;20.43;4.83;;;14.80;99.90;;;;;;4982093;28;20228;-80
2021/03/29 12:26:09;;;;;;;22.73;5.07;;;15.00;99.90;;;;;;4982655;28;20291;-80
2021/03/29 12:28:37;;;;;;;18.53;4.97;;;15.10;99.90;;;;;;4982090;28;20643;-77
2021/03/29 12:31:04;;;;;;;17.90;5.10;;;15.10;99.90;;;;;;4982811;28;20207;-80
2021/03/29 12:33:31;;;;;;;18.23;4.60;;;15.10;99.90;;;;;;4981141;28;20660;-81
2021/03/29 12:35:58;;;;;;;19.73;5.00;;;15.20;99.90;;;;;;4983093;28;20493;-78
2021/03/29 12:38:28;;;;;;;19.73;5.80;;;15.20;99.90;;;;;;4980967;28;20239;-79
2021/03/29 12:40:58;;;;;;;15.10;3.93;;;15.10;99.90;;;;;;4981479;28;20207;-79
2021/03/29 12:43:32;;;;;;;18.63;4.77;;;15.20;99.90;;;;;;4981215;28;20944;-81
2021/03/29 12:46:02;;;;;;;14.77;5.07;;;15.20;99.90;;;;;;4981003;28;20216;-78
2021/03/29 12:48:28;;;;;;;16.03;4.70;;;15.40;99.90;;;;;;4981602;28;20294;-79
2021/03/29 12:50:54;;;;;;;19.27;4.70;;;15.60;99.90;;;;;;4981770;28;20208;-78
2021/03/29 12:53:24;;;;;;;14.87;5.23;;;15.60;99.90;;;;;;4980990;28;20219;-78
2021/03/29 12:55:51;;;;;;;19.50;4.70;;;15.70;99.90;;;;;;4981851;28;20200;-79
2021/03/29 12:58:21;;;;;;;18.00;4.80;;;15.70;99.90;;;;;;4980300;28;20250;-81
2021/03/29 13:00:48;;;;;;;14.83;4.20;;;15.80;99.90;;;;;;4981481;28;20270;-81
2021/03/29 13:03:16;;;;;;;16.10;4.50;;;15.80;99.90;;;;;;4984536;28;20213;-79
2021/03/29 13:05:47;;;;;;;17.50;4.37;;;15.70;99.90;;;;;;4980648;28;20334;-81
2021/03/29 13:08:18;;;;;;;20.10;5.30;;;15.50;99.90;;;;;;4996128;28;20321;-78